sensor_id;sensor_type;location;lat;lon;timestamp;P1;durP1;ratioP1;P2;durP2;ratioP2
21681;SDS011;11002;48.256;10.084;2023-12-20T00:02:18;1.52;;;0.80;;
21681;SDS011;11002;48.256;10.084;2023-12-20T00:04:47;0.80;;;0.70;;
21681;SDS011;11002;48.256;10.084;2023-12-20T00:07:15;2.08;;;0.68;;
21681;SDS011;11002;48.256;10.084;2023-12-20T00:09:42;1.15;;;0.70;;
21681;SDS011;11002;48.256;10.084;2023-12-20T00:12:09;1.05;;;0.60;;
21681;SDS011;11002;48.256;10.084;2023-12-20T00:14:37;0.77;;;0.70;;
21681;SDS011;11002;48.256;10.084;2023-12-20T00:17:04;0.63;;;0.50;;
21681;SDS011;11002;48.256;10.084;2023-12-20T00:19:31;1.27;;;0.80;;
21681;SDS011;11002;48.256;10.084;2023-12-20T00:22:00;1.23;;;0.73;;
21681;SDS011;11002;48.256;10.084;2023-12-20T00:24:27;2.38;;;0.70;;
21681;SDS011;11002;48.256;10.084;2023-12-20T00:26:54;2.20;;;0.95;;
21681;SDS011;11002;48.256;10.084;2023-12-20T00:29:21;1.33;;;0.82;;
21681;SDS011;11002;48.256;10.084;2023-12-20T00:31:49;1.75;;;0.98;;
21681;SDS011;11002;48.256;10.084;2023-12-20T00:34:16;0.77;;;0.75;;
21681;SDS011;11002;48.256;10.084;2023-12-20T00:36:43;1.77;;;1.00;;
21681;SDS011;11002;48.256;10.084;2023-12-20T00:39:12;2.30;;;1.40;;
21681;SDS011;11002;48.256;10.084;2023-12-20T00:41:39;2.05;;;1.10;;
21681;SDS011;11002;48.256;10.084;2023-12-20T00:44:06;1.60;;;1.13;;
21681;SDS011;11002;48.256;10.084;2023-12-20T00:46:34;1.45;;;0.80;;
21681;SDS011;11002;48.256;10.084;2023-12-20T00:49:01;1.38;;;0.98;;
21681;SDS011;11002;48.256;10.084;2023-12-20T00:51:28;3.15;;;0.98;;
21681;SDS011;11002;48.256;10.084;2023-12-20T00:53:55;1.90;;;1.10;;
21681;SDS011;11002;48.256;10.084;2023-12-20T00:56:24;0.88;;;0.82;;
21681;SDS011;11002;48.256;10.084;2023-12-20T00:58:51;1.27;;;0.98;;
21681;SDS011;11002;48.256;10.084;2023-12-20T01:01:19;1.08;;;0.98;;
21681;SDS011;11002;48.256;10.084;2023-12-20T01:03:46;1.33;;;0.88;;
21681;SDS011;11002;48.256;10.084;2023-12-20T01:06:13;1.33;;;1.00;;
21681;SDS011;11002;48.256;10.084;2023-12-20T01:08:41;1.75;;;1.27;;
21681;SDS011;11002;48.256;10.084;2023-12-20T01:11:08;1.38;;;1.10;;
21681;SDS011;11002;48.256;10.084;2023-12-20T01:13:37;1.00;;;0.80;;
21681;SDS011;11002;48.256;10.084;2023-12-20T01:16:04;1.45;;;1.17;;
21681;SDS011;11002;48.256;10.084;2023-12-20T01:18:32;1.48;;;0.93;;
21681;SDS011;11002;48.256;10.084;2023-12-20T01:21:01;1.27;;;1.15;;
21681;SDS011;11002;48.256;10.084;2023-12-20T01:23:29;2.63;;;1.23;;
21681;SDS011;11002;48.256;10.084;2023-12-20T01:25:56;2.58;;;1.17;;
21681;SDS011;11002;48.256;10.084;2023-12-20T01:28:24;1.92;;;1.20;;
21681;SDS011;11002;48.256;10.084;2023-12-20T01:30:53;1.45;;;1.08;;
21681;SDS011;11002;48.256;10.084;2023-12-20T01:33:20;1.30;;;1.02;;
21681;SDS011;11002;48.256;10.084;2023-12-20T01:35:48;1.70;;;1.00;;
21681;SDS011;11002;48.256;10.084;2023-12-20T01:38:15;1.20;;;1.00;;
21681;SDS011;11002;48.256;10.084;2023-12-20T01:40:44;1.80;;;1.27;;
21681;SDS011;11002;48.256;10.084;2023-12-20T01:43:11;0.90;;;0.88;;
21681;SDS011;11002;48.256;10.084;2023-12-20T01:45:38;1.10;;;1.00;;
21681;SDS011;11002;48.256;10.084;2023-12-20T01:48:08;1.40;;;1.05;;
21681;SDS011;11002;48.256;10.084;2023-12-20T01:50:36;1.38;;;1.02;;
21681;SDS011;11002;48.256;10.084;2023-12-20T01:53:04;1.17;;;1.08;;
21681;SDS011;11002;48.256;10.084;2023-12-20T01:55:34;1.92;;;1.45;;
21681;SDS011;11002;48.256;10.084;2023-12-20T01:58:04;2.55;;;1.08;;
21681;SDS011;11002;48.256;10.084;2023-12-20T02:00:32;1.65;;;1.10;;
21681;SDS011;11002;48.256;10.084;2023-12-20T02:03:00;1.60;;;1.27;;
21681;SDS011;11002;48.256;10.084;2023-12-20T02:05:30;1.55;;;1.20;;
21681;SDS011;11002;48.256;10.084;2023-12-20T02:07:58;2.83;;;1.40;;
21681;SDS011;11002;48.256;10.084;2023-12-20T02:10:25;2.30;;;1.08;;
21681;SDS011;11002;48.256;10.084;2023-12-20T02:12:54;0.98;;;0.85;;
21681;SDS011;11002;48.256;10.084;2023-12-20T02:15:21;1.45;;;1.20;;
21681;SDS011;11002;48.256;10.084;2023-12-20T02:17:49;1.88;;;1.45;;
21681;SDS011;11002;48.256;10.084;2023-12-20T02:20:17;2.13;;;1.10;;
21681;SDS011;11002;48.256;10.084;2023-12-20T02:22:46;1.33;;;1.10;;
21681;SDS011;11002;48.256;10.084;2023-12-20T02:25:13;1.20;;;1.10;;
21681;SDS011;11002;48.256;10.084;2023-12-20T02:27:41;1.10;;;1.00;;
21681;SDS011;11002;48.256;10.084;2023-12-20T02:30:08;1.58;;;0.98;;
21681;SDS011;11002;48.256;10.084;2023-12-20T02:32:36;1.02;;;1.02;;
21681;SDS011;11002;48.256;10.084;2023-12-20T02:35:04;0.88;;;0.80;;
21681;SDS011;11002;48.256;10.084;2023-12-20T02:37:32;1.52;;;0.98;;
21681;SDS011;11002;48.256;10.084;2023-12-20T02:40:01;1.35;;;1.10;;
21681;SDS011;11002;48.256;10.084;2023-12-20T02:42:29;1.92;;;1.27;;
21681;SDS011;11002;48.256;10.084;2023-12-20T02:44:57;1.48;;;1.20;;
21681;SDS011;11002;48.256;10.084;2023-12-20T02:47:24;1.25;;;1.15;;
21681;SDS011;11002;48.256;10.084;2023-12-20T02:49:51;1.75;;;1.00;;
21681;SDS011;11002;48.256;10.084;2023-12-20T02:52:19;1.65;;;1.30;;
21681;SDS011;11002;48.256;10.084;2023-12-20T02:54:46;2.70;;;1.50;;
21681;SDS011;11002;48.256;10.084;2023-12-20T02:57:15;1.75;;;1.25;;
21681;SDS011;11002;48.256;10.084;2023-12-20T02:59:42;1.58;;;1.25;;
21681;SDS011;11002;48.256;10.084;2023-12-20T03:02:09;1.50;;;1.27;;
21681;SDS011;11002;48.256;10.084;2023-12-20T03:04:36;1.92;;;1.38;;
21681;SDS011;11002;48.256;10.084;2023-12-20T03:07:04;2.35;;;1.00;;
21681;SDS011;11002;48.256;10.084;2023-12-20T03:09:31;1.85;;;1.33;;
21681;SDS011;11002;48.256;10.084;2023-12-20T03:11:58;1.90;;;1.25;;
21681;SDS011;11002;48.256;10.084;2023-12-20T03:14:27;1.77;;;1.27;;
21681;SDS011;11002;48.256;10.084;2023-12-20T03:16:54;1.45;;;1.35;;
21681;SDS011;11002;48.256;10.084;2023-12-20T03:19:22;2.17;;;1.65;;
21681;SDS011;11002;48.256;10.084;2023-12-20T03:21:50;1.92;;;1.25;;
21681;SDS011;11002;48.256;10.084;2023-12-20T03:24:19;1.50;;;1.40;;
21681;SDS011;11002;48.256;10.084;2023-12-20T03:26:46;1.88;;;1.30;;
21681;SDS011;11002;48.256;10.084;2023-12-20T03:29:13;1.67;;;1.48;;
21681;SDS011;11002;48.256;10.084;2023-12-20T03:31:42;1.20;;;1.10;;
21681;SDS011;11002;48.256;10.084;2023-12-20T03:34:09;1.80;;;1.23;;
21681;SDS011;11002;48.256;10.084;2023-12-20T03:36:36;3.00;;;1.38;;
21681;SDS011;11002;48.256;10.084;2023-12-20T03:39:04;2.67;;;1.30;;
21681;SDS011;11002;48.256;10.084;2023-12-20T03:41:31;3.10;;;1.48;;
21681;SDS011;11002;48.256;10.084;2023-12-20T03:43:59;3.53;;;1.23;;
21681;SDS011;11002;48.256;10.084;2023-12-20T03:46:26;1.63;;;1.00;;
21681;SDS011;11002;48.256;10.084;2023-12-20T03:48:54;1.40;;;1.10;;
21681;SDS011;11002;48.256;10.084;2023-12-20T03:51:22;1.73;;;1.20;;
21681;SDS011;11002;48.256;10.084;2023-12-20T03:53:49;1.85;;;1.20;;
21681;SDS011;11002;48.256;10.084;2023-12-20T03:56:16;1.88;;;1.40;;
21681;SDS011;11002;48.256;10.084;2023-12-20T03:58:44;1.27;;;1.17;;
21681;SDS011;11002;48.256;10.084;2023-12-20T04:01:11;1.27;;;1.13;;
21681;SDS011;11002;48.256;10.084;2023-12-20T04:03:38;1.30;;;1.10;;
21681;SDS011;11002;48.256;10.084;2023-12-20T04:06:07;1.13;;;1.02;;
21681;SDS011;11002;48.256;10.084;2023-12-20T04:08:35;1.73;;;1.30;;
21681;SDS011;11002;48.256;10.084;2023-12-20T04:11:02;1.98;;;1.40;;
21681;SDS011;11002;48.256;10.084;2023-12-20T04:13:29;0.82;;;0.80;;
21681;SDS011;11002;48.256;10.084;2023-12-20T04:15:57;1.55;;;1.08;;
21681;SDS011;11002;48.256;10.084;2023-12-20T04:18:24;0.80;;;0.80;;
21681;SDS011;11002;48.256;10.084;2023-12-20T04:20:51;1.10;;;0.95;;
21681;SDS011;11002;48.256;10.084;2023-12-20T04:23:20;0.98;;;0.75;;
21681;SDS011;11002;48.256;10.084;2023-12-20T04:25:47;1.98;;;1.20;;
21681;SDS011;11002;48.256;10.084;2023-12-20T04:28:14;1.15;;;0.98;;
21681;SDS011;11002;48.256;10.084;2023-12-20T04:30:42;5.82;;;1.45;;
21681;SDS011;11002;48.256;10.084;2023-12-20T04:33:09;1.23;;;0.98;;
21681;SDS011;11002;48.256;10.084;2023-12-20T04:35:36;1.20;;;1.10;;
21681;SDS011;11002;48.256;10.084;2023-12-20T04:38:06;3.20;;;1.15;;
21681;SDS011;11002;48.256;10.084;2023-12-20T04:40:34;0.80;;;0.80;;
21681;SDS011;11002;48.256;10.084;2023-12-20T04:43:02;2.28;;;1.50;;
21681;SDS011;11002;48.256;10.084;2023-12-20T04:45:29;1.48;;;1.02;;
21681;SDS011;11002;48.256;10.084;2023-12-20T04:47:57;1.30;;;1.20;;
21681;SDS011;11002;48.256;10.084;2023-12-20T04:50:24;1.42;;;1.10;;
21681;SDS011;11002;48.256;10.084;2023-12-20T04:52:51;1.27;;;1.00;;
21681;SDS011;11002;48.256;10.084;2023-12-20T04:55:19;1.20;;;1.10;;
21681;SDS011;11002;48.256;10.084;2023-12-20T04:57:47;1.85;;;1.42;;
21681;SDS011;11002;48.256;10.084;2023-12-20T05:00:15;2.15;;;1.17;;
21681;SDS011;11002;48.256;10.084;2023-12-20T05:02:42;2.03;;;1.00;;
21681;SDS011;11002;48.256;10.084;2023-12-20T05:05:10;1.73;;;1.10;;
21681;SDS011;11002;48.256;10.084;2023-12-20T05:07:37;1.27;;;1.13;;
21681;SDS011;11002;48.256;10.084;2023-12-20T05:10:05;1.38;;;1.10;;
21681;SDS011;11002;48.256;10.084;2023-12-20T05:12:34;2.45;;;1.35;;
21681;SDS011;11002;48.256;10.084;2023-12-20T05:15:03;1.67;;;1.20;;
21681;SDS011;11002;48.256;10.084;2023-12-20T05:17:31;1.52;;;0.98;;
21681;SDS011;11002;48.256;10.084;2023-12-20T05:19:59;1.88;;;1.08;;
21681;SDS011;11002;48.256;10.084;2023-12-20T05:22:26;4.30;;;1.58;;
21681;SDS011;11002;48.256;10.084;2023-12-20T05:24:54;2.47;;;1.20;;
21681;SDS011;11002;48.256;10.084;2023-12-20T05:27:21;1.45;;;1.25;;
21681;SDS011;11002;48.256;10.084;2023-12-20T05:29:48;1.52;;;1.10;;
21681;SDS011;11002;48.256;10.084;2023-12-20T05:32:17;2.10;;;1.30;;
21681;SDS011;11002;48.256;10.084;2023-12-20T05:34:44;3.78;;;1.65;;
21681;SDS011;11002;48.256;10.084;2023-12-20T05:37:12;2.38;;;1.75;;
21681;SDS011;11002;48.256;10.084;2023-12-20T05:39:39;2.13;;;1.73;;
21681;SDS011;11002;48.256;10.084;2023-12-20T05:42:06;4.43;;;1.85;;
21681;SDS011;11002;48.256;10.084;2023-12-20T05:44:34;3.67;;;1.58;;
21681;SDS011;11002;48.256;10.084;2023-12-20T05:47:02;3.47;;;1.63;;
21681;SDS011;11002;48.256;10.084;2023-12-20T05:49:30;1.77;;;1.38;;
21681;SDS011;11002;48.256;10.084;2023-12-20T05:51:58;3.45;;;2.40;;
21681;SDS011;11002;48.256;10.084;2023-12-20T05:54:25;4.07;;;2.28;;
21681;SDS011;11002;48.256;10.084;2023-12-20T05:56:52;4.05;;;2.20;;
21681;SDS011;11002;48.256;10.084;2023-12-20T05:59:20;3.78;;;2.58;;
21681;SDS011;11002;48.256;10.084;2023-12-20T06:01:47;3.35;;;2.22;;
21681;SDS011;11002;48.256;10.084;2023-12-20T06:04:14;3.20;;;2.42;;
21681;SDS011;11002;48.256;10.084;2023-12-20T06:06:43;4.20;;;2.97;;
21681;SDS011;11002;48.256;10.084;2023-12-20T06:09:11;4.63;;;2.45;;
21681;SDS011;11002;48.256;10.084;2023-12-20T06:11:39;4.47;;;2.85;;
21681;SDS011;11002;48.256;10.084;2023-12-20T06:14:06;4.03;;;2.28;;
21681;SDS011;11002;48.256;10.084;2023-12-20T06:16:33;5.50;;;2.70;;
21681;SDS011;11002;48.256;10.084;2023-12-20T06:19:01;4.90;;;2.85;;
21681;SDS011;11002;48.256;10.084;2023-12-20T06:21:28;3.88;;;2.70;;
21681;SDS011;11002;48.256;10.084;2023-12-20T06:23:58;4.68;;;2.80;;
21681;SDS011;11002;48.256;10.084;2023-12-20T06:26:25;3.85;;;2.55;;
21681;SDS011;11002;48.256;10.084;2023-12-20T06:28:53;8.27;;;3.00;;
21681;SDS011;11002;48.256;10.084;2023-12-20T06:31:20;3.30;;;2.47;;
21681;SDS011;11002;48.256;10.084;2023-12-20T06:33:48;3.85;;;2.53;;
21681;SDS011;11002;48.256;10.084;2023-12-20T06:36:22;7.50;;;3.25;;
21681;SDS011;11002;48.256;10.084;2023-12-20T06:38:50;7.82;;;3.15;;
21681;SDS011;11002;48.256;10.084;2023-12-20T06:41:18;5.00;;;2.92;;
21681;SDS011;11002;48.256;10.084;2023-12-20T06:43:46;4.30;;;2.92;;
21681;SDS011;11002;48.256;10.084;2023-12-20T06:46:13;4.78;;;2.92;;
21681;SDS011;11002;48.256;10.084;2023-12-20T06:48:40;3.65;;;2.63;;
21681;SDS011;11002;48.256;10.084;2023-12-20T06:51:10;6.65;;;2.75;;
21681;SDS011;11002;48.256;10.084;2023-12-20T06:53:39;5.82;;;3.05;;
21681;SDS011;11002;48.256;10.084;2023-12-20T06:56:06;5.88;;;3.00;;
21681;SDS011;11002;48.256;10.084;2023-12-20T06:58:35;3.20;;;2.25;;
21681;SDS011;11002;48.256;10.084;2023-12-20T07:01:03;5.13;;;2.65;;
21681;SDS011;11002;48.256;10.084;2023-12-20T07:03:30;3.95;;;2.08;;
21681;SDS011;11002;48.256;10.084;2023-12-20T07:05:58;4.35;;;2.42;;
21681;SDS011;11002;48.256;10.084;2023-12-20T07:08:25;5.80;;;2.45;;
21681;SDS011;11002;48.256;10.084;2023-12-20T07:10:53;3.90;;;2.60;;
21681;SDS011;11002;48.256;10.084;2023-12-20T07:13:20;3.33;;;2.38;;
21681;SDS011;11002;48.256;10.084;2023-12-20T07:15:49;3.58;;;2.28;;
21681;SDS011;11002;48.256;10.084;2023-12-20T07:18:16;3.60;;;2.30;;
21681;SDS011;11002;48.256;10.084;2023-12-20T07:20:44;3.53;;;2.30;;
21681;SDS011;11002;48.256;10.084;2023-12-20T07:23:11;3.95;;;2.75;;
21681;SDS011;11002;48.256;10.084;2023-12-20T07:25:38;3.83;;;2.40;;
21681;SDS011;11002;48.256;10.084;2023-12-20T07:28:05;2.63;;;1.95;;
21681;SDS011;11002;48.256;10.084;2023-12-20T07:30:33;4.65;;;2.20;;
21681;SDS011;11002;48.256;10.084;2023-12-20T07:33:01;2.30;;;1.70;;
21681;SDS011;11002;48.256;10.084;2023-12-20T07:35:29;3.53;;;2.30;;
21681;SDS011;11002;48.256;10.084;2023-12-20T07:37:56;3.35;;;2.20;;
21681;SDS011;11002;48.256;10.084;2023-12-20T07:40:23;2.40;;;2.10;;
21681;SDS011;11002;48.256;10.084;2023-12-20T07:42:51;4.60;;;2.42;;
21681;SDS011;11002;48.256;10.084;2023-12-20T07:45:18;2.47;;;2.00;;
21681;SDS011;11002;48.256;10.084;2023-12-20T07:47:45;5.72;;;2.05;;
21681;SDS011;11002;48.256;10.084;2023-12-20T07:50:14;4.13;;;1.70;;
21681;SDS011;11002;48.256;10.084;2023-12-20T07:52:41;2.88;;;1.83;;
21681;SDS011;11002;48.256;10.084;2023-12-20T07:55:08;2.55;;;1.95;;
21681;SDS011;11002;48.256;10.084;2023-12-20T07:57:36;2.92;;;2.00;;
21681;SDS011;11002;48.256;10.084;2023-12-20T08:00:04;2.97;;;2.00;;
21681;SDS011;11002;48.256;10.084;2023-12-20T08:02:32;3.08;;;1.88;;
21681;SDS011;11002;48.256;10.084;2023-12-20T08:04:59;3.42;;;2.58;;
21681;SDS011;11002;48.256;10.084;2023-12-20T08:07:28;2.75;;;1.85;;
21681;SDS011;11002;48.256;10.084;2023-12-20T08:09:55;2.35;;;2.03;;
21681;SDS011;11002;48.256;10.084;2023-12-20T08:12:22;2.22;;;1.80;;
21681;SDS011;11002;48.256;10.084;2023-12-20T08:14:52;2.65;;;2.17;;
21681;SDS011;11002;48.256;10.084;2023-12-20T08:17:20;6.45;;;2.50;;
21681;SDS011;11002;48.256;10.084;2023-12-20T08:19:48;3.05;;;2.28;;
21681;SDS011;11002;48.256;10.084;2023-12-20T08:22:16;3.25;;;2.10;;
21681;SDS011;11002;48.256;10.084;2023-12-20T08:24:44;3.55;;;2.30;;
21681;SDS011;11002;48.256;10.084;2023-12-20T08:27:12;7.95;;;2.17;;
21681;SDS011;11002;48.256;10.084;2023-12-20T08:29:39;3.35;;;2.30;;
21681;SDS011;11002;48.256;10.084;2023-12-20T08:32:06;2.42;;;2.03;;
21681;SDS011;11002;48.256;10.084;2023-12-20T08:34:33;2.85;;;2.15;;
21681;SDS011;11002;48.256;10.084;2023-12-20T08:37:01;3.80;;;2.30;;
21681;SDS011;11002;48.256;10.084;2023-12-20T08:39:28;2.55;;;2.20;;
21681;SDS011;11002;48.256;10.084;2023-12-20T08:41:57;2.92;;;2.30;;
21681;SDS011;11002;48.256;10.084;2023-12-20T08:44:24;2.83;;;2.05;;
21681;SDS011;11002;48.256;10.084;2023-12-20T08:46:52;2.42;;;2.22;;
21681;SDS011;11002;48.256;10.084;2023-12-20T08:49:22;3.08;;;2.10;;
21681;SDS011;11002;48.256;10.084;2023-12-20T08:51:50;4.25;;;2.08;;
21681;SDS011;11002;48.256;10.084;2023-12-20T08:54:18;3.60;;;2.00;;
21681;SDS011;11002;48.256;10.084;2023-12-20T08:56:45;2.88;;;1.90;;
21681;SDS011;11002;48.256;10.084;2023-12-20T08:59:14;3.05;;;2.25;;
21681;SDS011;11002;48.256;10.084;2023-12-20T09:01:41;3.75;;;2.40;;
21681;SDS011;11002;48.256;10.084;2023-12-20T09:04:08;2.08;;;1.58;;
21681;SDS011;11002;48.256;10.084;2023-12-20T09:06:36;3.10;;;2.55;;
21681;SDS011;11002;48.256;10.084;2023-12-20T09:09:03;3.80;;;2.10;;
21681;SDS011;11002;48.256;10.084;2023-12-20T09:11:30;3.30;;;2.30;;
21681;SDS011;11002;48.256;10.084;2023-12-20T09:13:58;3.78;;;2.70;;
21681;SDS011;11002;48.256;10.084;2023-12-20T09:16:26;3.63;;;2.15;;
21681;SDS011;11002;48.256;10.084;2023-12-20T09:18:54;2.88;;;2.63;;
21681;SDS011;11002;48.256;10.084;2023-12-20T09:21:22;2.92;;;2.45;;
21681;SDS011;11002;48.256;10.084;2023-12-20T09:23:49;2.58;;;1.92;;
21681;SDS011;11002;48.256;10.084;2023-12-20T09:26:16;2.17;;;1.83;;
21681;SDS011;11002;48.256;10.084;2023-12-20T09:28:43;3.20;;;2.03;;
21681;SDS011;11002;48.256;10.084;2023-12-20T09:31:11;4.25;;;1.90;;
21681;SDS011;11002;48.256;10.084;2023-12-20T09:33:40;4.00;;;2.03;;
21681;SDS011;11002;48.256;10.084;2023-12-20T09:36:07;2.88;;;1.98;;
21681;SDS011;11002;48.256;10.084;2023-12-20T09:38:34;2.35;;;1.42;;
21681;SDS011;11002;48.256;10.084;2023-12-20T09:41:02;2.28;;;1.83;;
21681;SDS011;11002;48.256;10.084;2023-12-20T09:43:30;2.15;;;1.92;;
21681;SDS011;11002;48.256;10.084;2023-12-20T09:45:59;2.38;;;1.83;;
21681;SDS011;11002;48.256;10.084;2023-12-20T09:48:28;2.05;;;1.70;;
21681;SDS011;11002;48.256;10.084;2023-12-20T09:50:58;2.03;;;1.58;;
21681;SDS011;11002;48.256;10.084;2023-12-20T09:53:25;2.55;;;1.95;;
21681;SDS011;11002;48.256;10.084;2023-12-20T09:55:55;1.65;;;1.55;;
21681;SDS011;11002;48.256;10.084;2023-12-20T09:58:25;1.52;;;1.42;;
21681;SDS011;11002;48.256;10.084;2023-12-20T10:00:52;2.55;;;1.75;;
21681;SDS011;11002;48.256;10.084;2023-12-20T10:03:21;1.38;;;1.27;;
21681;SDS011;11002;48.256;10.084;2023-12-20T10:05:52;1.73;;;1.23;;
21681;SDS011;11002;48.256;10.084;2023-12-20T10:08:22;1.23;;;1.13;;
21681;SDS011;11002;48.256;10.084;2023-12-20T10:10:50;1.63;;;1.40;;
21681;SDS011;11002;48.256;10.084;2023-12-20T10:13:17;2.67;;;1.85;;
21681;SDS011;11002;48.256;10.084;2023-12-20T10:15:45;4.40;;;1.60;;
21681;SDS011;11002;48.256;10.084;2023-12-20T10:18:12;3.53;;;1.50;;
21681;SDS011;11002;48.256;10.084;2023-12-20T10:20:40;1.63;;;1.25;;
21681;SDS011;11002;48.256;10.084;2023-12-20T10:23:08;2.20;;;1.38;;
21681;SDS011;11002;48.256;10.084;2023-12-20T10:25:37;1.38;;;1.27;;
21681;SDS011;11002;48.256;10.084;2023-12-20T10:28:10;1.60;;;1.45;;
21681;SDS011;11002;48.256;10.084;2023-12-20T10:30:39;1.95;;;1.48;;
21681;SDS011;11002;48.256;10.084;2023-12-20T10:33:07;2.17;;;1.80;;
21681;SDS011;11002;48.256;10.084;2023-12-20T10:35:35;1.73;;;1.20;;
21681;SDS011;11002;48.256;10.084;2023-12-20T10:38:04;3.03;;;1.42;;
21681;SDS011;11002;48.256;10.084;2023-12-20T10:40:34;1.45;;;1.20;;
21681;SDS011;11002;48.256;10.084;2023-12-20T10:43:04;3.30;;;1.77;;
21681;SDS011;11002;48.256;10.084;2023-12-20T10:45:31;2.63;;;1.80;;
21681;SDS011;11002;48.256;10.084;2023-12-20T10:47:59;1.80;;;1.10;;
21681;SDS011;11002;48.256;10.084;2023-12-20T10:50:28;1.75;;;1.33;;
21681;SDS011;11002;48.256;10.084;2023-12-20T10:52:56;1.35;;;1.25;;
21681;SDS011;11002;48.256;10.084;2023-12-20T10:55:24;1.85;;;1.58;;
21681;SDS011;11002;48.256;10.084;2023-12-20T10:57:52;2.90;;;1.58;;
21681;SDS011;11002;48.256;10.084;2023-12-20T11:00:28;1.95;;;1.40;;
21681;SDS011;11002;48.256;10.084;2023-12-20T11:02:58;2.15;;;1.38;;
21681;SDS011;11002;48.256;10.084;2023-12-20T11:05:31;2.67;;;2.05;;
21681;SDS011;11002;48.256;10.084;2023-12-20T11:08:08;5.65;;;3.78;;
21681;SDS011;11002;48.256;10.084;2023-12-20T11:10:39;0.57;;;0.50;;
21681;SDS011;11002;48.256;10.084;2023-12-20T11:13:12;0.65;;;0.50;;
21681;SDS011;11002;48.256;10.084;2023-12-20T11:15:44;0.85;;;0.45;;
21681;SDS011;11002;48.256;10.084;2023-12-20T11:18:12;0.65;;;0.50;;
21681;SDS011;11002;48.256;10.084;2023-12-20T11:20:39;0.10;;;0.10;;
21681;SDS011;11002;48.256;10.084;2023-12-20T11:23:08;0.55;;;0.52;;
21681;SDS011;11002;48.256;10.084;2023-12-20T11:25:48;0.90;;;0.40;;
21681;SDS011;11002;48.256;10.084;2023-12-20T11:28:20;0.45;;;0.43;;
21681;SDS011;11002;48.256;10.084;2023-12-20T11:30:50;0.40;;;0.30;;
21681;SDS011;11002;48.256;10.084;2023-12-20T11:33:21;0.70;;;0.43;;
21681;SDS011;11002;48.256;10.084;2023-12-20T11:35:49;0.63;;;0.63;;
21681;SDS011;11002;48.256;10.084;2023-12-20T11:38:16;1.33;;;1.15;;
21681;SDS011;11002;48.256;10.084;2023-12-20T11:40:47;1.25;;;0.57;;
21681;SDS011;11002;48.256;10.084;2023-12-20T11:43:29;0.40;;;0.40;;
21681;SDS011;11002;48.256;10.084;2023-12-20T11:45:59;0.93;;;0.70;;
21681;SDS011;11002;48.256;10.084;2023-12-20T11:48:30;2.25;;;0.50;;
21681;SDS011;11002;48.256;10.084;2023-12-20T11:50:57;0.47;;;0.40;;
21681;SDS011;11002;48.256;10.084;2023-12-20T11:53:25;0.90;;;0.60;;
21681;SDS011;11002;48.256;10.084;2023-12-20T11:55:53;0.55;;;0.50;;
21681;SDS011;11002;48.256;10.084;2023-12-20T11:58:21;1.58;;;0.90;;
21681;SDS011;11002;48.256;10.084;2023-12-20T12:00:49;3.08;;;1.50;;
21681;SDS011;11002;48.256;10.084;2023-12-20T12:03:17;0.63;;;0.63;;
21681;SDS011;11002;48.256;10.084;2023-12-20T12:05:46;2.05;;;0.40;;
21681;SDS011;11002;48.256;10.084;2023-12-20T12:08:14;0.40;;;0.40;;
21681;SDS011;11002;48.256;10.084;2023-12-20T12:10:41;0.85;;;0.40;;
21681;SDS011;11002;48.256;10.084;2023-12-20T12:13:09;0.75;;;0.50;;
21681;SDS011;11002;48.256;10.084;2023-12-20T12:15:37;0.45;;;0.40;;
21681;SDS011;11002;48.256;10.084;2023-12-20T12:18:04;0.50;;;0.40;;
21681;SDS011;11002;48.256;10.084;2023-12-20T12:20:33;0.77;;;0.35;;
21681;SDS011;11002;48.256;10.084;2023-12-20T12:23:01;1.75;;;0.70;;
21681;SDS011;11002;48.256;10.084;2023-12-20T12:25:30;1.10;;;0.80;;
21681;SDS011;11002;48.256;10.084;2023-12-20T12:27:58;0.52;;;0.52;;
21681;SDS011;11002;48.256;10.084;2023-12-20T12:30:25;2.70;;;0.80;;
21681;SDS011;11002;48.256;10.084;2023-12-20T12:32:53;0.63;;;0.40;;
21681;SDS011;11002;48.256;10.084;2023-12-20T12:35:22;0.45;;;0.40;;
21681;SDS011;11002;48.256;10.084;2023-12-20T12:37:50;0.43;;;0.40;;
21681;SDS011;11002;48.256;10.084;2023-12-20T12:40:18;0.45;;;0.38;;
21681;SDS011;11002;48.256;10.084;2023-12-20T12:42:45;0.93;;;0.47;;
21681;SDS011;11002;48.256;10.084;2023-12-20T12:45:13;1.73;;;0.50;;
21681;SDS011;11002;48.256;10.084;2023-12-20T12:47:41;0.50;;;0.50;;
21681;SDS011;11002;48.256;10.084;2023-12-20T12:50:08;0.80;;;0.30;;
21681;SDS011;11002;48.256;10.084;2023-12-20T12:52:36;1.25;;;0.40;;
21681;SDS011;11002;48.256;10.084;2023-12-20T12:55:05;0.55;;;0.22;;
21681;SDS011;11002;48.256;10.084;2023-12-20T12:57:32;0.50;;;0.35;;
21681;SDS011;11002;48.256;10.084;2023-12-20T13:00:00;0.30;;;0.20;;
21681;SDS011;11002;48.256;10.084;2023-12-20T13:02:28;0.28;;;0.28;;
21681;SDS011;11002;48.256;10.084;2023-12-20T13:04:56;0.68;;;0.40;;
21681;SDS011;11002;48.256;10.084;2023-12-20T13:07:23;0.40;;;0.30;;
21681;SDS011;11002;48.256;10.084;2023-12-20T13:09:50;0.70;;;0.30;;
21681;SDS011;11002;48.256;10.084;2023-12-20T13:12:19;0.20;;;0.15;;
21681;SDS011;11002;48.256;10.084;2023-12-20T13:14:47;0.60;;;0.30;;
21681;SDS011;11002;48.256;10.084;2023-12-20T13:17:15;0.60;;;0.30;;
21681;SDS011;11002;48.256;10.084;2023-12-20T13:19:42;0.17;;;0.17;;
21681;SDS011;11002;48.256;10.084;2023-12-20T13:22:09;0.38;;;0.30;;
21681;SDS011;11002;48.256;10.084;2023-12-20T13:24:36;0.22;;;0.22;;
21681;SDS011;11002;48.256;10.084;2023-12-20T13:27:03;0.43;;;0.43;;
21681;SDS011;11002;48.256;10.084;2023-12-20T13:29:32;1.73;;;0.90;;
21681;SDS011;11002;48.256;10.084;2023-12-20T13:32:00;1.17;;;1.08;;
21681;SDS011;11002;48.256;10.084;2023-12-20T13:34:29;0.30;;;0.30;;
21681;SDS011;11002;48.256;10.084;2023-12-20T13:36:56;1.52;;;0.88;;
21681;SDS011;11002;48.256;10.084;2023-12-20T13:39:23;0.90;;;0.80;;
21681;SDS011;11002;48.256;10.084;2023-12-20T13:41:51;1.35;;;0.30;;
21681;SDS011;11002;48.256;10.084;2023-12-20T13:44:18;2.10;;;0.40;;
21681;SDS011;11002;48.256;10.084;2023-12-20T13:46:47;1.08;;;0.70;;
21681;SDS011;11002;48.256;10.084;2023-12-20T13:49:15;0.52;;;0.50;;
21681;SDS011;11002;48.256;10.084;2023-12-20T13:51:42;2.47;;;0.57;;
21681;SDS011;11002;48.256;10.084;2023-12-20T13:54:10;0.73;;;0.40;;
21681;SDS011;11002;48.256;10.084;2023-12-20T13:56:37;1.95;;;0.43;;
21681;SDS011;11002;48.256;10.084;2023-12-20T13:59:04;0.60;;;0.60;;
21681;SDS011;11002;48.256;10.084;2023-12-20T14:01:31;1.38;;;0.90;;
21681;SDS011;11002;48.256;10.084;2023-12-20T14:04:00;3.03;;;1.55;;
21681;SDS011;11002;48.256;10.084;2023-12-20T14:06:27;2.65;;;1.35;;
21681;SDS011;11002;48.256;10.084;2023-12-20T14:08:55;0.75;;;0.60;;
21681;SDS011;11002;48.256;10.084;2023-12-20T14:11:22;0.80;;;0.47;;
21681;SDS011;11002;48.256;10.084;2023-12-20T14:13:49;3.00;;;0.75;;
21681;SDS011;11002;48.256;10.084;2023-12-20T14:16:16;0.93;;;0.50;;
21681;SDS011;11002;48.256;10.084;2023-12-20T14:18:44;0.65;;;0.52;;
21681;SDS011;11002;48.256;10.084;2023-12-20T14:21:12;1.50;;;0.40;;
21681;SDS011;11002;48.256;10.084;2023-12-20T14:23:40;0.52;;;0.52;;
21681;SDS011;11002;48.256;10.084;2023-12-20T14:26:07;3.60;;;0.82;;
21681;SDS011;11002;48.256;10.084;2023-12-20T14:28:40;2.05;;;0.65;;
21681;SDS011;11002;48.256;10.084;2023-12-20T14:31:07;3.05;;;0.70;;
21681;SDS011;11002;48.256;10.084;2023-12-20T14:33:35;3.83;;;0.90;;
21681;SDS011;11002;48.256;10.084;2023-12-20T14:36:04;1.73;;;0.63;;
21681;SDS011;11002;48.256;10.084;2023-12-20T14:38:33;3.50;;;0.80;;